createdAt,value
2019-04-12T00:01:49.501Z,37.50
2019-04-12T00:04:15.893Z,38.00
2019-04-12T00:06:42.224Z,37.60
2019-04-12T00:09:08.758Z,37.60
2019-04-12T00:11:35.191Z,37.50
2019-04-12T00:14:02.241Z,38.30
2019-04-12T00:16:28.514Z,37.60
2019-04-12T00:18:54.912Z,37.70
2019-04-12T00:21:21.332Z,37.70
2019-04-12T00:23:47.662Z,37.60
2019-04-12T00:26:15.936Z,37.60
2019-04-12T00:28:42.519Z,37.60
2019-04-12T00:31:08.905Z,37.50
2019-04-12T00:33:35.364Z,37.50
2019-04-12T00:36:01.876Z,37.50
2019-04-12T00:38:28.194Z,37.60
2019-04-12T00:40:54.739Z,37.70
2019-04-12T00:43:21.496Z,37.70
2019-04-12T00:45:48.015Z,37.60
2019-04-12T00:48:14.449Z,37.70
2019-04-12T00:50:41.677Z,37.60
2019-04-12T00:53:11.048Z,38.20
2019-04-12T00:55:36.918Z,37.60
2019-04-12T00:58:03.252Z,37.80
2019-04-12T01:00:31.746Z,38.10
2019-04-12T01:02:59.979Z,37.90
2019-04-12T01:05:34.332Z,37.90
2019-04-12T01:08:02.526Z,37.80
2019-04-12T01:10:29.445Z,37.90
2019-04-12T01:12:57.371Z,37.90
2019-04-12T01:15:23.950Z,37.90
2019-04-12T01:17:50.619Z,38.00
2019-04-12T01:20:17.027Z,38.00
2019-04-12T01:22:43.553Z,38.10
2019-04-12T01:25:13.283Z,38.20
2019-04-12T01:27:38.210Z,38.30
2019-04-12T01:30:05.311Z,38.20
2019-04-12T01:32:31.641Z,38.40
2019-04-12T01:34:57.971Z,38.40
2019-04-12T01:37:24.302Z,38.50
2019-04-12T01:39:50.634Z,38.50
2019-04-12T01:42:17.145Z,38.50
2019-04-12T01:44:44.670Z,38.50
2019-04-12T01:47:10.906Z,38.50
2019-04-12T01:49:37.238Z,38.50
2019-04-12T01:52:03.546Z,38.40
2019-04-12T01:54:29.944Z,38.50
2019-04-12T01:56:56.276Z,38.50
2019-04-12T01:59:22.606Z,38.30
2019-04-12T02:01:48.935Z,38.30
2019-04-12T02:04:15.266Z,38.30
2019-04-12T02:06:41.595Z,38.40
2019-04-12T02:09:07.822Z,38.30
2019-04-12T02:11:34.151Z,38.30
2019-04-12T02:14:00.803Z,38.30
2019-04-12T02:16:27.123Z,38.30
2019-04-12T02:18:53.450Z,38.20
2019-04-12T02:21:19.706Z,38.20
2019-04-12T02:23:46.111Z,38.20
2019-04-12T02:26:13.372Z,38.20
2019-04-12T02:28:54.860Z,38.20
2019-04-12T02:31:30.300Z,38.10
2019-04-12T02:33:56.626Z,38.10
2019-04-12T02:36:28.694Z,38.10
2019-04-12T02:38:55.028Z,38.10
2019-04-12T02:41:22.681Z,38.10
2019-04-12T02:43:50.126Z,38.10
2019-04-12T02:46:18.107Z,38.00
2019-04-12T02:48:50.068Z,38.80
2019-04-12T02:51:23.364Z,38.00
2019-04-12T02:53:59.462Z,38.00
2019-04-12T02:56:28.187Z,38.10
2019-04-12T02:59:00.486Z,38.00
2019-04-12T03:01:27.625Z,38.00
2019-04-12T03:03:55.816Z,38.10
2019-04-12T03:06:22.540Z,38.00
2019-04-12T03:08:48.974Z,38.00
2019-04-12T03:11:17.227Z,38.00
2019-04-12T03:13:44.348Z,38.00
2019-04-12T03:16:11.753Z,38.10
2019-04-12T03:18:39.005Z,38.10
2019-04-12T03:21:05.539Z,38.00
2019-04-12T03:23:31.973Z,38.00
2019-04-12T03:25:58.726Z,38.10
2019-04-12T03:28:25.354Z,38.00
2019-04-12T03:30:52.154Z,37.90
2019-04-12T03:33:18.728Z,38.00
2019-04-12T03:35:45.349Z,37.90
2019-04-12T03:38:11.899Z,37.90
2019-04-12T03:40:38.238Z,38.00
2019-04-12T03:43:04.690Z,38.00
2019-04-12T03:45:31.370Z,38.00
2019-04-12T03:47:58.294Z,38.00
2019-04-12T03:50:24.680Z,38.00
2019-04-12T03:52:51.111Z,38.00
2019-04-12T03:55:17.448Z,38.00
2019-04-12T03:57:44.079Z,38.10
2019-04-12T04:00:12.742Z,38.20
2019-04-12T04:02:39.414Z,38.30
2019-04-12T04:05:06.348Z,38.30
2019-04-12T04:07:33.087Z,38.30
2019-04-12T04:10:00.455Z,38.40
2019-04-12T04:12:26.898Z,38.50
2019-04-12T04:14:53.513Z,38.70
2019-04-12T04:17:22.180Z,38.70
2019-04-12T04:19:50.683Z,38.70
2019-04-12T04:22:17.468Z,38.80
2019-04-12T04:24:45.991Z,38.90
2019-04-12T04:27:17.164Z,39.00
2019-04-12T04:29:45.935Z,39.10
2019-04-12T04:32:20.979Z,39.10
2019-04-12T04:34:47.675Z,39.20
2019-04-12T04:37:14.243Z,39.20
2019-04-12T04:39:40.984Z,39.20
2019-04-12T04:42:07.637Z,39.40
2019-04-12T04:44:34.128Z,39.40
2019-04-12T04:47:00.690Z,39.60
2019-04-12T04:49:27.684Z,39.60
2019-04-12T04:51:54.481Z,40.00
2019-04-12T04:54:21.215Z,39.70
2019-04-12T04:56:47.686Z,39.70
2019-04-12T04:59:14.335Z,39.70
2019-04-12T05:01:41.026Z,39.70
2019-04-12T05:04:07.700Z,39.80
2019-04-12T05:06:34.722Z,39.80
2019-04-12T05:09:01.354Z,39.80
2019-04-12T05:11:27.985Z,39.90
2019-04-12T05:13:54.726Z,40.10
2019-04-12T05:16:21.362Z,40.10
2019-04-12T05:18:47.997Z,40.30
2019-04-12T05:21:14.537Z,40.50
2019-04-12T05:23:41.011Z,40.80
2019-04-12T05:26:07.606Z,40.90
2019-04-12T05:28:34.041Z,41.00
2019-04-12T05:31:00.232Z,41.70
2019-04-12T05:33:28.427Z,41.10
2019-04-12T05:35:55.286Z,41.20
2019-04-12T05:38:21.926Z,41.30
2019-04-12T05:40:48.352Z,41.30
2019-04-12T05:43:14.745Z,41.40
2019-04-12T05:45:58.011Z,41.70
2019-04-12T05:48:36.305Z,41.60
2019-04-12T05:51:02.654Z,41.60
2019-04-12T05:53:31.147Z,41.60
2019-04-12T05:55:57.465Z,41.80
2019-04-12T05:58:26.048Z,41.90
2019-04-12T06:01:00.064Z,42.00
2019-04-12T06:03:28.047Z,42.00
2019-04-12T06:05:54.766Z,42.10
2019-04-12T06:08:21.242Z,42.20
2019-04-12T06:10:47.652Z,42.20
2019-04-12T06:13:15.186Z,42.30
2019-04-12T06:15:44.106Z,42.40
2019-04-12T06:18:11.139Z,42.50
2019-04-12T06:20:41.191Z,42.50
2019-04-12T06:23:07.889Z,42.60
2019-04-12T06:25:36.096Z,42.60
2019-04-12T06:28:02.696Z,42.70
2019-04-12T06:30:37.017Z,42.70
2019-04-12T06:33:04.016Z,42.70
2019-04-12T06:35:30.291Z,42.90
2019-04-12T06:37:56.823Z,43.00
2019-04-12T06:40:23.232Z,43.00
2019-04-12T06:42:49.690Z,43.10
2019-04-12T06:45:16.244Z,43.10
2019-04-12T06:47:42.554Z,43.10
2019-04-12T06:50:11.465Z,43.10
2019-04-12T06:52:37.915Z,43.10
2019-04-12T06:55:09.965Z,43.20
2019-04-12T06:57:36.275Z,43.20
2019-04-12T07:00:24.432Z,43.10
2019-04-12T07:02:55.557Z,43.30
2019-04-12T07:05:21.901Z,43.20
2019-04-12T07:07:48.325Z,43.00
2019-04-12T07:10:14.753Z,42.10
2019-04-12T07:12:41.084Z,42.20
2019-04-12T07:15:07.722Z,42.00
2019-04-12T07:17:33.940Z,42.10
2019-04-12T07:20:00.247Z,42.00
2019-04-12T07:22:27.504Z,42.00
2019-04-12T07:24:53.866Z,41.70
2019-04-12T07:27:20.198Z,41.80
2019-04-12T07:29:46.527Z,42.30
2019-04-12T07:32:12.926Z,41.40
2019-04-12T07:34:39.201Z,41.50
2019-04-12T07:37:05.514Z,41.50
2019-04-12T07:39:32.064Z,41.40
2019-04-12T07:41:58.367Z,41.40
2019-04-12T07:44:24.713Z,41.20
2019-04-12T07:46:51.039Z,41.00
2019-04-12T07:49:17.335Z,41.20
2019-04-12T07:51:54.555Z,41.30
2019-04-12T07:54:38.220Z,40.90
2019-04-12T07:57:12.513Z,40.70
2019-04-12T07:59:38.941Z,40.20
2019-04-12T08:02:13.563Z,40.10
2019-04-12T08:04:44.835Z,39.70
2019-04-12T08:07:15.750Z,39.70
2019-04-12T08:09:42.608Z,39.70
2019-04-12T08:12:09.024Z,39.40
2019-04-12T08:14:35.693Z,39.60
2019-04-12T08:17:02.095Z,39.70
2019-04-12T08:19:28.849Z,40.00
2019-04-12T08:21:55.266Z,40.20
2019-04-12T08:24:21.597Z,40.20
2019-04-12T08:26:47.933Z,40.20
2019-04-12T08:29:14.208Z,39.80
2019-04-12T08:31:40.506Z,39.70
2019-04-12T08:34:06.921Z,39.70
2019-04-12T08:36:33.253Z,39.70
2019-04-12T08:38:59.581Z,39.30
2019-04-12T08:41:25.981Z,39.50
2019-04-12T08:43:54.158Z,39.40
2019-04-12T08:46:20.724Z,39.80
2019-04-12T08:48:46.966Z,38.80
2019-04-12T08:51:22.644Z,39.30
2019-04-12T08:53:41.374Z,39.00
2019-04-12T08:56:07.662Z,38.60
2019-04-12T08:58:34.047Z,38.40
2019-04-12T09:01:00.396Z,36.60
2019-04-12T09:03:27.836Z,36.60
2019-04-12T09:05:54.231Z,36.60
2019-04-12T09:08:20.527Z,36.30
2019-04-12T09:10:46.829Z,36.20
2019-04-12T09:13:13.355Z,36.10
2019-04-12T09:15:39.961Z,35.50
2019-04-12T09:18:06.543Z,34.90
2019-04-12T09:20:43.997Z,34.80
2019-04-12T09:23:12.201Z,34.70
2019-04-12T09:25:40.481Z,35.30
2019-04-12T09:28:09.555Z,35.20
2019-04-12T09:30:35.733Z,35.50
2019-04-12T09:33:02.309Z,35.20
2019-04-12T09:35:28.732Z,35.00
2019-04-12T09:37:55.060Z,34.70
2019-04-12T09:40:21.316Z,34.60
2019-04-12T09:42:47.720Z,34.30
2019-04-12T09:45:13.948Z,34.50
2019-04-12T09:47:40.279Z,34.20
2019-04-12T09:50:06.916Z,34.30
2019-04-12T09:52:33.144Z,33.90
2019-04-12T09:54:59.806Z,33.70
2019-04-12T09:57:26.114Z,33.00
2019-04-12T09:59:52.444Z,32.60
2019-04-12T10:02:18.978Z,32.70
2019-04-12T10:04:45.257Z,33.30
2019-04-12T10:07:11.638Z,32.70
2019-04-12T10:09:37.968Z,32.00
2019-04-12T10:12:04.292Z,32.40
2019-04-12T10:14:30.734Z,32.00
2019-04-12T10:16:57.625Z,31.80
2019-04-12T10:19:24.109Z,31.90
2019-04-12T10:21:50.542Z,31.90
2019-04-12T10:24:18.736Z,31.80
2019-04-12T10:26:44.947Z,32.00
2019-04-12T10:29:11.280Z,32.00
2019-04-12T10:31:37.821Z,31.90
2019-04-12T10:34:04.204Z,31.50
2019-04-12T10:36:30.576Z,31.70
2019-04-12T10:39:07.766Z,31.60
2019-04-12T10:41:34.714Z,31.40
2019-04-12T10:44:22.541Z,32.10
2019-04-12T10:46:50.811Z,32.40
2019-04-12T10:49:33.737Z,32.90
2019-04-12T10:52:01.965Z,32.60
2019-04-12T10:54:46.875Z,32.80
2019-04-12T10:57:13.140Z,32.90
2019-04-12T10:59:39.536Z,33.00
2019-04-12T11:02:05.864Z,32.90
2019-04-12T11:04:32.199Z,33.20
2019-04-12T11:06:58.510Z,33.30
2019-04-12T11:09:24.856Z,33.20
2019-04-12T11:11:51.197Z,33.20
2019-04-12T11:14:17.517Z,32.80
2019-04-12T11:16:43.849Z,32.30
2019-04-12T11:19:10.279Z,32.60
2019-04-12T11:21:36.610Z,32.70
2019-04-12T11:24:03.378Z,32.80
2019-04-12T11:26:29.989Z,32.80
2019-04-12T11:28:56.318Z,32.70
2019-04-12T11:31:22.650Z,33.50
2019-04-12T11:33:48.979Z,33.30
2019-04-12T11:36:15.245Z,32.50
2019-04-12T11:38:41.540Z,32.30
2019-04-12T11:41:07.871Z,32.90
2019-04-12T11:43:34.239Z,33.10
2019-04-12T11:46:01.056Z,33.30
2019-04-12T11:48:27.476Z,33.40
2019-04-12T11:50:53.752Z,33.40
2019-04-12T11:53:20.198Z,32.90
2019-04-12T11:55:48.159Z,32.60
2019-04-12T11:58:14.534Z,32.60
2019-04-12T12:00:48.855Z,32.30
2019-04-12T12:03:17.436Z,32.20
2019-04-12T12:05:51.347Z,32.00
2019-04-12T12:08:22.515Z,31.90
2019-04-12T12:10:50.764Z,32.30
2019-04-12T12:13:35.525Z,33.20
2019-04-12T12:16:03.800Z,33.60
2019-04-12T12:18:32.485Z,34.00
2019-04-12T12:20:58.775Z,34.40
2019-04-12T12:23:25.146Z,34.50
2019-04-12T12:25:51.479Z,34.80
2019-04-12T12:28:17.809Z,34.90
2019-04-12T12:30:44.102Z,35.00
2019-04-12T12:33:10.468Z,35.10
2019-04-12T12:35:36.799Z,35.10
2019-04-12T12:38:03.088Z,35.20
2019-04-12T12:40:29.394Z,35.10
2019-04-12T12:42:55.893Z,34.70
2019-04-12T12:45:22.223Z,34.50
2019-04-12T12:47:48.659Z,33.80
2019-04-12T12:50:15.089Z,33.00
2019-04-12T12:52:41.521Z,32.90
2019-04-12T12:55:08.365Z,32.40
2019-04-12T12:57:34.695Z,32.60
2019-04-12T13:00:01.130Z,32.80
2019-04-12T13:02:27.583Z,32.80
2019-04-12T13:04:55.818Z,32.30
2019-04-12T13:07:22.198Z,32.00
2019-04-12T13:09:48.469Z,31.60
2019-04-12T13:12:15.164Z,30.70
2019-04-12T13:14:41.882Z,30.90
2019-04-12T13:17:08.107Z,31.00
2019-04-12T13:19:34.845Z,31.20
2019-04-12T13:22:01.414Z,31.30
2019-04-12T13:24:28.216Z,31.30
2019-04-12T13:26:54.544Z,31.20
2019-04-12T13:29:20.883Z,30.50
2019-04-12T13:32:04.519Z,30.80
2019-04-12T13:34:41.468Z,30.40
2019-04-12T13:37:21.859Z,30.10
2019-04-12T13:39:50.051Z,30.50
2019-04-12T13:42:24.152Z,31.20
2019-04-12T13:44:50.476Z,31.80
2019-04-12T13:47:16.811Z,32.20
2019-04-12T13:49:43.140Z,32.20
2019-04-12T13:52:09.499Z,32.50
2019-04-12T13:54:35.899Z,32.90
2019-04-12T13:57:02.332Z,33.20
2019-04-12T13:59:28.661Z,33.80
2019-04-12T14:01:55.535Z,34.00
2019-04-12T14:04:22.041Z,34.00
2019-04-12T14:06:48.470Z,34.50
2019-04-12T14:09:14.815Z,34.60
2019-04-12T14:11:41.136Z,34.80
2019-04-12T14:14:07.466Z,35.00
2019-04-12T14:16:36.350Z,35.00
2019-04-12T14:19:01.986Z,35.30
2019-04-12T14:21:28.401Z,35.20
2019-04-12T14:23:54.632Z,35.10
2019-04-12T14:26:20.959Z,34.60
2019-04-12T14:28:47.289Z,34.50
2019-04-12T14:31:15.770Z,34.70
2019-04-12T14:33:46.815Z,34.80
2019-04-12T14:36:31.510Z,34.80
2019-04-12T14:38:58.009Z,34.90
2019-04-12T14:41:24.240Z,34.50
2019-04-12T14:44:07.562Z,34.60
2019-04-12T14:46:38.501Z,34.60
2019-04-12T14:49:04.926Z,34.50
2019-04-12T14:51:31.265Z,34.50
2019-04-12T14:53:57.595Z,34.10
2019-04-12T14:56:23.927Z,34.00
2019-04-12T14:58:50.313Z,33.80
2019-04-12T15:01:16.692Z,33.90
2019-04-12T15:03:42.971Z,34.20
2019-04-12T15:06:10.346Z,34.50
2019-04-12T15:08:36.639Z,34.60
2019-04-12T15:11:03.098Z,34.50
2019-04-12T15:13:29.465Z,34.50
2019-04-12T15:15:55.804Z,34.60
2019-04-12T15:18:22.118Z,34.70
2019-04-12T15:20:48.457Z,35.70
2019-04-12T15:23:14.786Z,35.20
2019-04-12T15:25:41.061Z,35.50
2019-04-12T15:28:07.445Z,35.60
2019-04-12T15:30:33.779Z,35.90
2019-04-12T15:33:00.115Z,36.50
2019-04-12T15:35:28.044Z,36.20
2019-04-12T15:37:54.409Z,36.20
2019-04-12T15:40:20.738Z,36.40
2019-04-12T15:42:47.068Z,36.40
2019-04-12T15:45:13.718Z,37.20
2019-04-12T15:47:40.037Z,36.40
2019-04-12T15:50:06.981Z,36.30
2019-04-12T15:52:33.311Z,36.30
2019-04-12T15:54:59.641Z,36.10
2019-04-12T15:57:26.075Z,36.00
2019-04-12T15:59:52.303Z,35.80
2019-04-12T16:02:19.469Z,35.60
2019-04-12T16:04:46.322Z,35.40
2019-04-12T16:07:16.740Z,35.20
2019-04-12T16:09:46.947Z,35.30
2019-04-12T16:12:33.758Z,35.30
2019-04-12T16:15:04.246Z,35.20
2019-04-12T16:17:51.193Z,35.20
2019-04-12T16:20:17.457Z,35.20
2019-04-12T16:22:43.741Z,35.00
2019-04-12T16:25:10.491Z,35.10
2019-04-12T16:27:38.977Z,35.20
2019-04-12T16:30:14.105Z,35.30
2019-04-12T16:32:42.590Z,35.30
2019-04-12T16:35:17.319Z,35.30
2019-04-12T16:37:51.494Z,35.30
2019-04-12T16:40:20.023Z,34.90
2019-04-12T16:42:46.242Z,34.80
2019-04-12T16:45:13.000Z,34.70
2019-04-12T16:47:39.313Z,34.70
2019-04-12T16:50:06.314Z,34.70
2019-04-12T16:52:32.611Z,34.70
2019-04-12T16:54:59.025Z,34.70
2019-04-12T16:57:25.357Z,34.70
2019-04-12T16:59:51.942Z,35.10
2019-04-12T17:02:18.226Z,34.60
2019-04-12T17:04:44.661Z,34.70
2019-04-12T17:07:11.753Z,34.60
2019-04-12T17:09:38.352Z,34.60
2019-04-12T17:12:04.769Z,34.70
2019-04-12T17:14:31.301Z,34.60
2019-04-12T17:16:57.601Z,34.70
2019-04-12T17:19:23.966Z,34.80
2019-04-12T17:21:50.293Z,34.70
2019-04-12T17:24:16.726Z,34.80
2019-04-12T17:26:43.056Z,34.80
2019-04-12T17:29:09.387Z,35.30
2019-04-12T17:31:35.638Z,34.80
2019-04-12T17:34:02.256Z,34.80
2019-04-12T17:36:28.478Z,34.80
2019-04-12T17:38:54.912Z,34.70
2019-04-12T17:41:21.241Z,34.70
2019-04-12T17:43:47.574Z,34.70
2019-04-12T17:46:14.011Z,34.70
2019-04-12T17:48:44.938Z,34.70
2019-04-12T17:51:26.883Z,35.00
2019-04-12T17:53:55.030Z,34.70
2019-04-12T17:56:27.469Z,34.60
2019-04-12T17:58:49.622Z,34.50
2019-04-12T18:01:27.093Z,35.40
2019-04-12T18:03:55.350Z,35.50
2019-04-12T18:06:21.718Z,35.50
2019-04-12T18:08:48.049Z,35.50
2019-04-12T18:11:16.172Z,35.50
2019-04-12T18:13:42.473Z,35.70
2019-04-12T18:16:08.802Z,35.60
2019-04-12T18:18:41.071Z,35.70
2019-04-12T18:21:07.352Z,35.80
2019-04-12T18:23:33.709Z,35.80
2019-04-12T18:26:00.002Z,35.90
2019-04-12T18:28:26.370Z,36.00
2019-04-12T18:30:52.707Z,36.10
2019-04-12T18:33:19.132Z,36.30
2019-04-12T18:35:45.670Z,36.40
2019-04-12T18:38:12.410Z,36.50
2019-04-12T18:40:38.955Z,36.60
2019-04-12T18:43:05.376Z,36.60
2019-04-12T18:45:32.158Z,36.80
2019-04-12T18:47:58.856Z,36.80
2019-04-12T18:50:25.411Z,36.90
2019-04-12T18:52:51.839Z,37.60
2019-04-12T18:55:18.155Z,37.40
2019-04-12T18:57:44.487Z,37.50
2019-04-12T19:00:13.077Z,38.20
2019-04-12T19:02:39.478Z,37.90
2019-04-12T19:05:06.799Z,38.00
2019-04-12T19:07:33.147Z,38.10
2019-04-12T19:09:59.633Z,38.20
2019-04-12T19:12:26.053Z,38.30
2019-04-12T19:14:52.380Z,38.40
2019-04-12T19:17:23.726Z,38.50
2019-04-12T19:19:50.064Z,38.60
2019-04-12T19:22:16.492Z,38.70
2019-04-12T19:24:42.874Z,39.00
2019-04-12T19:27:09.192Z,39.10
2019-04-12T19:29:35.585Z,39.30
2019-04-12T19:32:12.680Z,39.50
2019-04-12T19:34:46.818Z,39.60
2019-04-12T19:37:27.070Z,39.50
2019-04-12T19:39:55.228Z,39.40
2019-04-12T19:42:21.718Z,39.60
2019-04-12T19:44:48.078Z,39.60
2019-04-12T19:47:14.405Z,39.80
2019-04-12T19:49:40.742Z,39.80
2019-04-12T19:52:08.263Z,39.70
2019-04-12T19:54:34.627Z,39.70
2019-04-12T19:57:01.064Z,39.60
2019-04-12T19:59:27.413Z,39.60
2019-04-12T20:01:53.686Z,39.70
2019-04-12T20:04:20.048Z,39.50
2019-04-12T20:06:46.494Z,39.70
2019-04-12T20:09:13.014Z,39.70
2019-04-12T20:11:39.451Z,39.70
2019-04-12T20:14:06.003Z,39.80
2019-04-12T20:16:32.642Z,39.60
2019-04-12T20:18:59.164Z,39.50
2019-04-12T20:21:25.590Z,39.70
2019-04-12T20:23:51.941Z,39.90
2019-04-12T20:26:18.268Z,39.80
2019-04-12T20:28:44.503Z,39.80
2019-04-12T20:31:11.218Z,39.80
2019-04-12T20:33:37.768Z,40.00
2019-04-12T20:36:04.314Z,40.20
2019-04-12T20:38:30.948Z,40.20
2019-04-12T20:40:57.592Z,40.30
2019-04-12T20:43:24.202Z,40.20
2019-04-12T20:45:50.942Z,40.30
2019-04-12T20:48:17.320Z,40.40
2019-04-12T20:50:43.705Z,40.30
2019-04-12T20:53:10.230Z,40.40
2019-04-12T20:55:36.674Z,40.60
2019-04-12T20:58:03.117Z,40.80
2019-04-12T21:00:29.396Z,41.30
2019-04-12T21:02:55.717Z,40.90
2019-04-12T21:05:22.150Z,41.20
2019-04-12T21:07:50.489Z,41.20
2019-04-12T21:10:16.910Z,41.20
2019-04-12T21:12:43.246Z,41.30
2019-04-12T21:15:11.563Z,41.40
2019-04-12T21:17:37.868Z,41.30
2019-04-12T21:20:05.320Z,41.40
2019-04-12T21:22:31.733Z,41.50
2019-04-12T21:24:58.424Z,41.60
2019-04-12T21:27:24.803Z,42.10
2019-04-12T21:29:51.133Z,42.40
2019-04-12T21:32:17.440Z,42.60
2019-04-12T21:34:44.067Z,43.20
2019-04-12T21:37:11.449Z,42.60
2019-04-12T21:39:38.107Z,42.70
2019-04-12T21:42:04.424Z,42.90
2019-04-12T21:44:30.856Z,42.90
2019-04-12T21:46:57.187Z,43.10
2019-04-12T21:49:23.636Z,43.10
2019-04-12T21:51:50.054Z,43.10
2019-04-12T21:54:16.383Z,43.00
2019-04-12T21:56:42.727Z,43.00
2019-04-12T21:59:08.969Z,43.20
2019-04-12T22:01:36.623Z,43.40
2019-04-12T22:04:03.142Z,43.60
2019-04-12T22:06:37.665Z,43.60
2019-04-12T22:09:05.032Z,43.60
2019-04-12T22:11:31.329Z,44.20
2019-04-12T22:13:57.886Z,44.20
2019-04-12T22:16:24.643Z,44.30
2019-04-12T22:18:51.058Z,44.60
2019-04-12T22:21:17.388Z,44.90
2019-04-12T22:23:43.930Z,45.60
2019-04-12T22:26:10.241Z,45.40
2019-04-12T22:28:36.792Z,45.20
2019-04-12T22:31:03.266Z,45.30
2019-04-12T22:33:29.570Z,45.30
2019-04-12T22:35:55.984Z,45.70
2019-04-12T22:38:22.417Z,45.80
2019-04-12T22:40:48.851Z,46.30
2019-04-12T22:43:15.383Z,46.80
2019-04-12T22:45:41.818Z,47.10
2019-04-12T22:48:08.250Z,47.80
2019-04-12T22:50:34.576Z,47.40
2019-04-12T22:53:00.913Z,47.30
2019-04-12T22:55:27.600Z,47.90
2019-04-12T22:57:53.954Z,47.10
2019-04-12T23:00:20.748Z,47.20
2019-04-12T23:02:47.154Z,47.20
2019-04-12T23:05:13.589Z,48.00
2019-04-12T23:07:39.918Z,48.20
2019-04-12T23:10:06.782Z,48.40
2019-04-12T23:12:33.198Z,48.60
2019-04-12T23:14:59.526Z,49.50
2019-04-12T23:17:26.168Z,49.10
2019-04-12T23:19:52.490Z,49.10
2019-04-12T23:22:18.822Z,49.20
2019-04-12T23:24:45.154Z,49.50
2019-04-12T23:27:11.484Z,49.50
2019-04-12T23:29:37.814Z,49.50
2019-04-12T23:32:06.007Z,49.20
2019-04-12T23:34:34.223Z,49.50
2019-04-12T23:37:00.593Z,49.40
2019-04-12T23:39:26.925Z,49.20
2019-04-12T23:41:53.254Z,48.90
2019-04-12T23:44:19.585Z,49.20
2019-04-12T23:46:45.913Z,49.00
2019-04-12T23:49:12.194Z,49.40
2019-04-12T23:51:38.572Z,49.70
2019-04-12T23:54:05.140Z,49.60
2019-04-12T23:56:31.539Z,49.90
2019-04-12T23:58:57.799Z,50.00
